sensor_id;sensor_type;location;lat;lon;timestamp;P1;durP1;ratioP1;P2;durP2;ratioP2
75272;SDS011;63869;52.344;16.928;2023-11-21T00:02:15;43.85;;;15.45;;
75272;SDS011;63869;52.344;16.928;2023-11-21T00:04:41;44.75;;;18.00;;
75272;SDS011;63869;52.344;16.928;2023-11-21T00:07:06;39.67;;;17.08;;
75272;SDS011;63869;52.344;16.928;2023-11-21T00:09:32;38.67;;;16.60;;
75272;SDS011;63869;52.344;16.928;2023-11-21T00:11:57;41.20;;;17.15;;
75272;SDS011;63869;52.344;16.928;2023-11-21T00:14:24;40.80;;;16.70;;
75272;SDS011;63869;52.344;16.928;2023-11-21T00:16:50;40.55;;;16.05;;
75272;SDS011;63869;52.344;16.928;2023-11-21T00:19:15;40.65;;;17.25;;
75272;SDS011;63869;52.344;16.928;2023-11-21T00:21:41;37.30;;;15.90;;
75272;SDS011;63869;52.344;16.928;2023-11-21T00:24:09;41.63;;;17.42;;
75272;SDS011;63869;52.344;16.928;2023-11-21T00:26:35;40.53;;;16.80;;
75272;SDS011;63869;52.344;16.928;2023-11-21T00:29:02;40.10;;;15.95;;
75272;SDS011;63869;52.344;16.928;2023-11-21T00:31:29;34.38;;;15.05;;
75272;SDS011;63869;52.344;16.928;2023-11-21T00:33:56;36.13;;;15.63;;
75272;SDS011;63869;52.344;16.928;2023-11-21T00:36:21;35.22;;;15.25;;
75272;SDS011;63869;52.344;16.928;2023-11-21T00:38:47;37.05;;;16.25;;
75272;SDS011;63869;52.344;16.928;2023-11-21T00:41:13;35.25;;;15.32;;
75272;SDS011;63869;52.344;16.928;2023-11-21T00:43:39;38.00;;;16.20;;
75272;SDS011;63869;52.344;16.928;2023-11-21T00:46:05;38.08;;;15.45;;
75272;SDS011;63869;52.344;16.928;2023-11-21T00:48:33;36.85;;;15.63;;
75272;SDS011;63869;52.344;16.928;2023-11-21T00:50:59;35.17;;;15.55;;
75272;SDS011;63869;52.344;16.928;2023-11-21T00:53:24;34.38;;;15.57;;
75272;SDS011;63869;52.344;16.928;2023-11-21T00:55:49;37.58;;;16.35;;
75272;SDS011;63869;52.344;16.928;2023-11-21T00:58:17;35.58;;;16.02;;
75272;SDS011;63869;52.344;16.928;2023-11-21T01:00:42;36.38;;;15.35;;
75272;SDS011;63869;52.344;16.928;2023-11-21T01:03:09;37.45;;;15.02;;
75272;SDS011;63869;52.344;16.928;2023-11-21T01:05:38;36.67;;;14.50;;
75272;SDS011;63869;52.344;16.928;2023-11-21T01:08:04;32.03;;;13.90;;
75272;SDS011;63869;52.344;16.928;2023-11-21T01:10:30;31.52;;;14.00;;
75272;SDS011;63869;52.344;16.928;2023-11-21T01:12:56;32.13;;;14.20;;
75272;SDS011;63869;52.344;16.928;2023-11-21T01:15:22;33.45;;;13.98;;
75272;SDS011;63869;52.344;16.928;2023-11-21T01:17:48;31.23;;;14.50;;
75272;SDS011;63869;52.344;16.928;2023-11-21T01:20:13;28.98;;;13.48;;
75272;SDS011;63869;52.344;16.928;2023-11-21T01:22:39;34.53;;;14.20;;
75272;SDS011;63869;52.344;16.928;2023-11-21T01:25:04;27.98;;;13.77;;
75272;SDS011;63869;52.344;16.928;2023-11-21T01:27:32;31.48;;;14.07;;
75272;SDS011;63869;52.344;16.928;2023-11-21T01:29:59;32.15;;;14.02;;
75272;SDS011;63869;52.344;16.928;2023-11-21T01:32:24;33.90;;;14.85;;
75272;SDS011;63869;52.344;16.928;2023-11-21T01:34:50;32.47;;;14.70;;
75272;SDS011;63869;52.344;16.928;2023-11-21T01:37:16;36.33;;;16.35;;
75272;SDS011;63869;52.344;16.928;2023-11-21T01:39:42;36.35;;;14.80;;
75272;SDS011;63869;52.344;16.928;2023-11-21T01:42:11;37.85;;;16.05;;
75272;SDS011;63869;52.344;16.928;2023-11-21T01:44:38;40.05;;;16.48;;
75272;SDS011;63869;52.344;16.928;2023-11-21T01:47:04;41.97;;;16.52;;
75272;SDS011;63869;52.344;16.928;2023-11-21T01:49:34;41.30;;;16.38;;
75272;SDS011;63869;52.344;16.928;2023-11-21T01:52:00;39.33;;;16.02;;
75272;SDS011;63869;52.344;16.928;2023-11-21T01:54:27;37.00;;;15.23;;
75272;SDS011;63869;52.344;16.928;2023-11-21T01:56:59;37.05;;;15.45;;
75272;SDS011;63869;52.344;16.928;2023-11-21T01:59:28;38.65;;;15.68;;
75272;SDS011;63869;52.344;16.928;2023-11-21T02:01:59;41.47;;;15.98;;
75272;SDS011;63869;52.344;16.928;2023-11-21T02:04:24;43.13;;;16.83;;
75272;SDS011;63869;52.344;16.928;2023-11-21T02:06:50;41.22;;;16.55;;
75272;SDS011;63869;52.344;16.928;2023-11-21T02:09:17;46.35;;;18.63;;
75272;SDS011;63869;52.344;16.928;2023-11-21T02:11:43;43.50;;;17.15;;
75272;SDS011;63869;52.344;16.928;2023-11-21T02:14:09;43.60;;;16.88;;
75272;SDS011;63869;52.344;16.928;2023-11-21T02:16:34;45.30;;;17.60;;
75272;SDS011;63869;52.344;16.928;2023-11-21T02:19:01;42.78;;;16.95;;
75272;SDS011;63869;52.344;16.928;2023-11-21T02:21:28;41.85;;;15.98;;
75272;SDS011;63869;52.344;16.928;2023-11-21T02:23:55;47.72;;;18.10;;
75272;SDS011;63869;52.344;16.928;2023-11-21T02:26:20;47.00;;;16.98;;
75272;SDS011;63869;52.344;16.928;2023-11-21T02:28:46;50.42;;;20.08;;
75272;SDS011;63869;52.344;16.928;2023-11-21T02:31:11;46.58;;;18.83;;
75272;SDS011;63869;52.344;16.928;2023-11-21T02:33:37;43.85;;;18.13;;
75272;SDS011;63869;52.344;16.928;2023-11-21T02:36:03;49.47;;;17.83;;
75272;SDS011;63869;52.344;16.928;2023-11-21T02:38:29;47.75;;;18.08;;
75272;SDS011;63869;52.344;16.928;2023-11-21T02:40:55;45.30;;;17.45;;
75272;SDS011;63869;52.344;16.928;2023-11-21T02:43:22;42.83;;;17.80;;
75272;SDS011;63869;52.344;16.928;2023-11-21T02:45:47;42.05;;;16.92;;
75272;SDS011;63869;52.344;16.928;2023-11-21T02:48:13;43.53;;;16.50;;
75272;SDS011;63869;52.344;16.928;2023-11-21T02:50:38;39.40;;;15.75;;
75272;SDS011;63869;52.344;16.928;2023-11-21T02:53:04;37.47;;;14.73;;
75272;SDS011;63869;52.344;16.928;2023-11-21T02:55:30;38.08;;;15.52;;
75272;SDS011;63869;52.344;16.928;2023-11-21T02:57:59;37.55;;;15.30;;
75272;SDS011;63869;52.344;16.928;2023-11-21T03:00:25;37.63;;;14.73;;
75272;SDS011;63869;52.344;16.928;2023-11-21T03:02:51;38.22;;;15.18;;
75272;SDS011;63869;52.344;16.928;2023-11-21T03:05:17;31.48;;;13.10;;
75272;SDS011;63869;52.344;16.928;2023-11-21T03:07:42;29.35;;;13.13;;
75272;SDS011;63869;52.344;16.928;2023-11-21T03:10:08;31.73;;;13.50;;
75272;SDS011;63869;52.344;16.928;2023-11-21T03:12:36;29.92;;;12.70;;
75272;SDS011;63869;52.344;16.928;2023-11-21T03:15:07;31.92;;;13.52;;
75272;SDS011;63869;52.344;16.928;2023-11-21T03:17:36;33.47;;;13.95;;
75272;SDS011;63869;52.344;16.928;2023-11-21T03:20:02;35.78;;;14.65;;
75272;SDS011;63869;52.344;16.928;2023-11-21T03:22:28;33.88;;;13.15;;
75272;SDS011;63869;52.344;16.928;2023-11-21T03:24:54;31.65;;;13.60;;
75272;SDS011;63869;52.344;16.928;2023-11-21T03:27:19;30.73;;;13.18;;
75272;SDS011;63869;52.344;16.928;2023-11-21T03:29:45;29.65;;;13.73;;
75272;SDS011;63869;52.344;16.928;2023-11-21T03:32:11;29.48;;;12.00;;
75272;SDS011;63869;52.344;16.928;2023-11-21T03:34:48;28.85;;;12.40;;
75272;SDS011;63869;52.344;16.928;2023-11-21T03:37:19;27.67;;;11.95;;
75272;SDS011;63869;52.344;16.928;2023-11-21T03:39:45;27.90;;;11.65;;
75272;SDS011;63869;52.344;16.928;2023-11-21T03:42:11;26.45;;;11.65;;
75272;SDS011;63869;52.344;16.928;2023-11-21T03:44:37;27.17;;;12.45;;
75272;SDS011;63869;52.344;16.928;2023-11-21T03:47:02;32.13;;;12.13;;
75272;SDS011;63869;52.344;16.928;2023-11-21T03:49:28;28.48;;;12.05;;
75272;SDS011;63869;52.344;16.928;2023-11-21T03:51:54;27.02;;;11.38;;
75272;SDS011;63869;52.344;16.928;2023-11-21T03:54:19;29.48;;;11.77;;
75272;SDS011;63869;52.344;16.928;2023-11-21T03:56:45;25.52;;;10.93;;
75272;SDS011;63869;52.344;16.928;2023-11-21T03:59:10;28.10;;;11.75;;
75272;SDS011;63869;52.344;16.928;2023-11-21T04:01:36;25.70;;;10.93;;
75272;SDS011;63869;52.344;16.928;2023-11-21T04:04:02;29.35;;;10.95;;
75272;SDS011;63869;52.344;16.928;2023-11-21T04:06:27;25.65;;;10.82;;
75272;SDS011;63869;52.344;16.928;2023-11-21T04:08:54;22.35;;;10.10;;
75272;SDS011;63869;52.344;16.928;2023-11-21T04:11:19;22.52;;;10.05;;
75272;SDS011;63869;52.344;16.928;2023-11-21T04:13:45;25.17;;;10.15;;
75272;SDS011;63869;52.344;16.928;2023-11-21T04:16:12;20.95;;;9.02;;
75272;SDS011;63869;52.344;16.928;2023-11-21T04:18:37;20.40;;;8.63;;
75272;SDS011;63869;52.344;16.928;2023-11-21T04:21:04;20.60;;;8.88;;
75272;SDS011;63869;52.344;16.928;2023-11-21T04:23:30;20.90;;;8.60;;
75272;SDS011;63869;52.344;16.928;2023-11-21T04:25:57;18.77;;;8.68;;
75272;SDS011;63869;52.344;16.928;2023-11-21T04:28:25;18.50;;;8.27;;
75272;SDS011;63869;52.344;16.928;2023-11-21T04:30:51;19.38;;;8.52;;
75272;SDS011;63869;52.344;16.928;2023-11-21T04:33:16;18.55;;;8.25;;
75272;SDS011;63869;52.344;16.928;2023-11-21T04:35:42;18.60;;;8.45;;
75272;SDS011;63869;52.344;16.928;2023-11-21T04:38:07;19.65;;;8.80;;
75272;SDS011;63869;52.344;16.928;2023-11-21T04:40:33;19.60;;;8.77;;
75272;SDS011;63869;52.344;16.928;2023-11-21T04:42:58;19.48;;;9.20;;
75272;SDS011;63869;52.344;16.928;2023-11-21T04:45:24;18.38;;;9.10;;
75272;SDS011;63869;52.344;16.928;2023-11-21T04:47:49;17.45;;;8.38;;
75272;SDS011;63869;52.344;16.928;2023-11-21T04:50:15;22.30;;;10.43;;
75272;SDS011;63869;52.344;16.928;2023-11-21T04:52:40;21.15;;;9.85;;
75272;SDS011;63869;52.344;16.928;2023-11-21T04:55:06;22.08;;;10.57;;
75272;SDS011;63869;52.344;16.928;2023-11-21T04:57:35;19.02;;;9.05;;
75272;SDS011;63869;52.344;16.928;2023-11-21T05:00:04;21.33;;;9.50;;
75272;SDS011;63869;52.344;16.928;2023-11-21T05:02:31;20.27;;;9.27;;
75272;SDS011;63869;52.344;16.928;2023-11-21T05:04:59;24.13;;;10.20;;
75272;SDS011;63869;52.344;16.928;2023-11-21T05:07:25;25.13;;;10.75;;
75272;SDS011;63869;52.344;16.928;2023-11-21T05:09:52;22.58;;;10.38;;
75272;SDS011;63869;52.344;16.928;2023-11-21T05:12:17;24.27;;;10.32;;
75272;SDS011;63869;52.344;16.928;2023-11-21T05:14:43;25.38;;;10.15;;
75272;SDS011;63869;52.344;16.928;2023-11-21T05:17:09;21.38;;;10.18;;
75272;SDS011;63869;52.344;16.928;2023-11-21T05:19:35;19.25;;;9.40;;
75272;SDS011;63869;52.344;16.928;2023-11-21T05:22:01;18.95;;;9.30;;
75272;SDS011;63869;52.344;16.928;2023-11-21T05:24:26;19.38;;;8.52;;
75272;SDS011;63869;52.344;16.928;2023-11-21T05:26:52;17.35;;;9.00;;
75272;SDS011;63869;52.344;16.928;2023-11-21T05:29:18;16.73;;;8.27;;
75272;SDS011;63869;52.344;16.928;2023-11-21T05:31:43;16.73;;;9.00;;
75272;SDS011;63869;52.344;16.928;2023-11-21T05:34:09;14.93;;;8.18;;
75272;SDS011;63869;52.344;16.928;2023-11-21T05:36:34;15.95;;;7.68;;
75272;SDS011;63869;52.344;16.928;2023-11-21T05:39:00;18.02;;;8.35;;
75272;SDS011;63869;52.344;16.928;2023-11-21T05:41:25;17.67;;;7.60;;
75272;SDS011;63869;52.344;16.928;2023-11-21T05:43:50;13.77;;;7.40;;
75272;SDS011;63869;52.344;16.928;2023-11-21T05:46:16;15.32;;;7.40;;
75272;SDS011;63869;52.344;16.928;2023-11-21T05:48:41;14.05;;;7.65;;
75272;SDS011;63869;52.344;16.928;2023-11-21T05:51:07;17.05;;;7.65;;
75272;SDS011;63869;52.344;16.928;2023-11-21T05:53:33;15.30;;;7.18;;
75272;SDS011;63869;52.344;16.928;2023-11-21T05:55:59;13.60;;;7.05;;
75272;SDS011;63869;52.344;16.928;2023-11-21T05:58:24;16.27;;;7.50;;
75272;SDS011;63869;52.344;16.928;2023-11-21T06:00:49;15.98;;;7.68;;
75272;SDS011;63869;52.344;16.928;2023-11-21T06:03:16;16.13;;;7.60;;
75272;SDS011;63869;52.344;16.928;2023-11-21T06:05:42;17.38;;;8.13;;
75272;SDS011;63869;52.344;16.928;2023-11-21T06:08:09;17.73;;;7.82;;
75272;SDS011;63869;52.344;16.928;2023-11-21T06:10:35;19.70;;;8.48;;
75272;SDS011;63869;52.344;16.928;2023-11-21T06:13:01;16.67;;;8.23;;
75272;SDS011;63869;52.344;16.928;2023-11-21T06:15:26;16.30;;;8.35;;
75272;SDS011;63869;52.344;16.928;2023-11-21T06:17:51;17.42;;;8.50;;
75272;SDS011;63869;52.344;16.928;2023-11-21T06:20:17;16.83;;;7.82;;
75272;SDS011;63869;52.344;16.928;2023-11-21T06:22:44;15.18;;;7.63;;
75272;SDS011;63869;52.344;16.928;2023-11-21T06:25:11;13.75;;;6.45;;
75272;SDS011;63869;52.344;16.928;2023-11-21T06:27:45;15.15;;;7.13;;
75272;SDS011;63869;52.344;16.928;2023-11-21T06:30:11;14.63;;;6.80;;
75272;SDS011;63869;52.344;16.928;2023-11-21T06:32:39;13.73;;;7.32;;
75272;SDS011;63869;52.344;16.928;2023-11-21T06:35:05;14.70;;;7.22;;
75272;SDS011;63869;52.344;16.928;2023-11-21T06:37:31;13.30;;;6.50;;
75272;SDS011;63869;52.344;16.928;2023-11-21T06:39:59;12.68;;;6.45;;
75272;SDS011;63869;52.344;16.928;2023-11-21T06:42:26;15.43;;;7.10;;
75272;SDS011;63869;52.344;16.928;2023-11-21T06:44:52;15.52;;;7.75;;
75272;SDS011;63869;52.344;16.928;2023-11-21T06:47:19;15.02;;;7.35;;
75272;SDS011;63869;52.344;16.928;2023-11-21T06:49:49;16.00;;;7.82;;
75272;SDS011;63869;52.344;16.928;2023-11-21T06:52:16;17.88;;;8.35;;
75272;SDS011;63869;52.344;16.928;2023-11-21T06:54:41;14.73;;;7.65;;
75272;SDS011;63869;52.344;16.928;2023-11-21T06:57:06;17.42;;;8.50;;
75272;SDS011;63869;52.344;16.928;2023-11-21T06:59:32;18.23;;;8.88;;
75272;SDS011;63869;52.344;16.928;2023-11-21T07:01:58;25.23;;;9.93;;
75272;SDS011;63869;52.344;16.928;2023-11-21T07:04:24;21.38;;;9.90;;
75272;SDS011;63869;52.344;16.928;2023-11-21T07:06:51;23.38;;;10.63;;
75272;SDS011;63869;52.344;16.928;2023-11-21T07:09:17;23.50;;;10.02;;
75272;SDS011;63869;52.344;16.928;2023-11-21T07:11:44;25.85;;;10.27;;
75272;SDS011;63869;52.344;16.928;2023-11-21T07:14:09;28.77;;;11.32;;
75272;SDS011;63869;52.344;16.928;2023-11-21T07:16:35;28.38;;;12.23;;
75272;SDS011;63869;52.344;16.928;2023-11-21T07:19:03;27.23;;;12.57;;
75272;SDS011;63869;52.344;16.928;2023-11-21T07:21:35;25.30;;;11.93;;
75272;SDS011;63869;52.344;16.928;2023-11-21T07:24:03;25.02;;;11.30;;
75272;SDS011;63869;52.344;16.928;2023-11-21T07:26:29;24.70;;;10.32;;
75272;SDS011;63869;52.344;16.928;2023-11-21T07:28:55;22.05;;;10.70;;
75272;SDS011;63869;52.344;16.928;2023-11-21T07:31:21;21.02;;;9.50;;
75272;SDS011;63869;52.344;16.928;2023-11-21T07:33:47;22.90;;;9.43;;
75272;SDS011;63869;52.344;16.928;2023-11-21T07:36:13;27.65;;;10.63;;
75272;SDS011;63869;52.344;16.928;2023-11-21T07:38:39;24.65;;;11.07;;
75272;SDS011;63869;52.344;16.928;2023-11-21T07:41:05;18.65;;;9.52;;
75272;SDS011;63869;52.344;16.928;2023-11-21T07:43:32;23.13;;;10.15;;
75272;SDS011;63869;52.344;16.928;2023-11-21T07:46:02;18.05;;;8.60;;
75272;SDS011;63869;52.344;16.928;2023-11-21T07:48:32;21.05;;;9.88;;
75272;SDS011;63869;52.344;16.928;2023-11-21T07:50:58;20.65;;;9.70;;
75272;SDS011;63869;52.344;16.928;2023-11-21T07:53:27;17.58;;;9.23;;
75272;SDS011;63869;52.344;16.928;2023-11-21T07:55:55;19.30;;;8.65;;
75272;SDS011;63869;52.344;16.928;2023-11-21T07:58:21;18.63;;;8.35;;
75272;SDS011;63869;52.344;16.928;2023-11-21T08:00:46;22.83;;;9.35;;
75272;SDS011;63869;52.344;16.928;2023-11-21T08:03:13;20.25;;;9.48;;
75272;SDS011;63869;52.344;16.928;2023-11-21T08:05:38;20.08;;;9.27;;
75272;SDS011;63869;52.344;16.928;2023-11-21T08:08:04;18.20;;;8.50;;
75272;SDS011;63869;52.344;16.928;2023-11-21T08:10:30;20.27;;;8.07;;
75272;SDS011;63869;52.344;16.928;2023-11-21T08:12:56;16.05;;;8.35;;
75272;SDS011;63869;52.344;16.928;2023-11-21T08:15:21;18.83;;;8.23;;
75272;SDS011;63869;52.344;16.928;2023-11-21T08:17:47;18.25;;;8.40;;
75272;SDS011;63869;52.344;16.928;2023-11-21T08:20:13;16.67;;;7.28;;
75272;SDS011;63869;52.344;16.928;2023-11-21T08:22:42;17.58;;;7.55;;
75272;SDS011;63869;52.344;16.928;2023-11-21T08:25:11;20.33;;;8.30;;
75272;SDS011;63869;52.344;16.928;2023-11-21T08:27:38;16.63;;;7.72;;
75272;SDS011;63869;52.344;16.928;2023-11-21T08:30:04;17.15;;;7.90;;
75272;SDS011;63869;52.344;16.928;2023-11-21T08:32:32;12.80;;;6.70;;
75272;SDS011;63869;52.344;16.928;2023-11-21T08:34:58;15.48;;;6.18;;
75272;SDS011;63869;52.344;16.928;2023-11-21T08:37:24;13.82;;;5.93;;
75272;SDS011;63869;52.344;16.928;2023-11-21T08:39:52;9.27;;;5.35;;
75272;SDS011;63869;52.344;16.928;2023-11-21T08:42:18;13.05;;;6.53;;
75272;SDS011;63869;52.344;16.928;2023-11-21T08:44:45;12.85;;;6.22;;
75272;SDS011;63869;52.344;16.928;2023-11-21T08:47:11;13.38;;;6.75;;
75272;SDS011;63869;52.344;16.928;2023-11-21T08:49:36;14.43;;;6.68;;
75272;SDS011;63869;52.344;16.928;2023-11-21T08:52:03;16.13;;;7.45;;
75272;SDS011;63869;52.344;16.928;2023-11-21T08:54:30;15.77;;;8.05;;
75272;SDS011;63869;52.344;16.928;2023-11-21T08:56:56;19.35;;;8.55;;
75272;SDS011;63869;52.344;16.928;2023-11-21T08:59:24;12.32;;;6.55;;
75272;SDS011;63869;52.344;16.928;2023-11-21T09:01:51;18.63;;;8.82;;
75272;SDS011;63869;52.344;16.928;2023-11-21T09:04:18;10.98;;;6.38;;
75272;SDS011;63869;52.344;16.928;2023-11-21T09:06:43;8.82;;;5.25;;
75272;SDS011;63869;52.344;16.928;2023-11-21T09:09:09;10.38;;;5.78;;
75272;SDS011;63869;52.344;16.928;2023-11-21T09:11:35;10.40;;;5.50;;
75272;SDS011;63869;52.344;16.928;2023-11-21T09:14:01;10.73;;;6.25;;
75272;SDS011;63869;52.344;16.928;2023-11-21T09:16:28;10.63;;;5.68;;
75272;SDS011;63869;52.344;16.928;2023-11-21T09:18:54;14.52;;;6.55;;
75272;SDS011;63869;52.344;16.928;2023-11-21T09:21:19;18.40;;;7.75;;
75272;SDS011;63869;52.344;16.928;2023-11-21T09:23:44;14.55;;;7.80;;
75272;SDS011;63869;52.344;16.928;2023-11-21T09:26:10;13.57;;;7.68;;
75272;SDS011;63869;52.344;16.928;2023-11-21T09:28:36;16.20;;;8.48;;
75272;SDS011;63869;52.344;16.928;2023-11-21T09:31:06;19.00;;;8.80;;
75272;SDS011;63869;52.344;16.928;2023-11-21T09:33:34;17.75;;;9.10;;
75272;SDS011;63869;52.344;16.928;2023-11-21T09:35:59;21.08;;;10.32;;
75272;SDS011;63869;52.344;16.928;2023-11-21T09:38:26;20.27;;;10.25;;
75272;SDS011;63869;52.344;16.928;2023-11-21T09:40:53;20.38;;;9.93;;
75272;SDS011;63869;52.344;16.928;2023-11-21T09:43:23;17.90;;;10.27;;
75272;SDS011;63869;52.344;16.928;2023-11-21T09:45:56;19.77;;;9.93;;
75272;SDS011;63869;52.344;16.928;2023-11-21T09:48:26;17.60;;;9.32;;
75272;SDS011;63869;52.344;16.928;2023-11-21T09:50:52;16.40;;;9.25;;
75272;SDS011;63869;52.344;16.928;2023-11-21T09:53:22;16.80;;;8.98;;
75272;SDS011;63869;52.344;16.928;2023-11-21T09:55:50;15.82;;;8.52;;
75272;SDS011;63869;52.344;16.928;2023-11-21T09:58:17;16.60;;;8.35;;
75272;SDS011;63869;52.344;16.928;2023-11-21T10:00:47;16.98;;;8.88;;
75272;SDS011;63869;52.344;16.928;2023-11-21T10:03:14;18.52;;;9.52;;
75272;SDS011;63869;52.344;16.928;2023-11-21T10:05:42;17.38;;;9.35;;
75272;SDS011;63869;52.344;16.928;2023-11-21T10:08:10;18.77;;;10.32;;
75272;SDS011;63869;52.344;16.928;2023-11-21T10:10:43;20.33;;;11.48;;
75272;SDS011;63869;52.344;16.928;2023-11-21T10:15:37;18.80;;;9.50;;
75272;SDS011;63869;52.344;16.928;2023-11-21T10:18:03;23.05;;;10.43;;
75272;SDS011;63869;52.344;16.928;2023-11-21T10:20:31;22.83;;;10.82;;
75272;SDS011;63869;52.344;16.928;2023-11-21T10:22:58;18.52;;;9.77;;
75272;SDS011;63869;52.344;16.928;2023-11-21T10:25:26;19.20;;;10.40;;
75272;SDS011;63869;52.344;16.928;2023-11-21T10:27:56;19.48;;;10.55;;
75272;SDS011;63869;52.344;16.928;2023-11-21T10:30:27;21.33;;;10.77;;
75272;SDS011;63869;52.344;16.928;2023-11-21T10:33:00;24.50;;;11.35;;
75272;SDS011;63869;52.344;16.928;2023-11-21T10:35:38;21.52;;;11.07;;
75272;SDS011;63869;52.344;16.928;2023-11-21T10:38:04;23.38;;;11.13;;
75272;SDS011;63869;52.344;16.928;2023-11-21T10:40:30;21.08;;;11.18;;
75272;SDS011;63869;52.344;16.928;2023-11-21T10:43:01;21.63;;;10.70;;
75272;SDS011;63869;52.344;16.928;2023-11-21T10:45:33;21.08;;;11.20;;
75272;SDS011;63869;52.344;16.928;2023-11-21T10:47:59;28.92;;;13.95;;
75272;SDS011;63869;52.344;16.928;2023-11-21T10:50:25;23.17;;;12.30;;
75272;SDS011;63869;52.344;16.928;2023-11-21T10:52:51;22.58;;;11.75;;
75272;SDS011;63869;52.344;16.928;2023-11-21T10:55:17;22.67;;;11.35;;
75272;SDS011;63869;52.344;16.928;2023-11-21T10:57:48;23.02;;;11.93;;
75272;SDS011;63869;52.344;16.928;2023-11-21T11:00:15;19.48;;;10.82;;
75272;SDS011;63869;52.344;16.928;2023-11-21T11:02:44;19.63;;;10.20;;
75272;SDS011;63869;52.344;16.928;2023-11-21T11:05:12;21.25;;;10.35;;
75272;SDS011;63869;52.344;16.928;2023-11-21T11:07:41;19.17;;;10.65;;
75272;SDS011;63869;52.344;16.928;2023-11-21T11:10:08;20.27;;;10.93;;
75272;SDS011;63869;52.344;16.928;2023-11-21T11:12:39;18.27;;;9.80;;
75272;SDS011;63869;52.344;16.928;2023-11-21T11:15:06;20.50;;;10.25;;
75272;SDS011;63869;52.344;16.928;2023-11-21T11:17:34;19.83;;;10.27;;
75272;SDS011;63869;52.344;16.928;2023-11-21T11:20:04;20.45;;;10.27;;
75272;SDS011;63869;52.344;16.928;2023-11-21T11:22:39;20.25;;;10.95;;
75272;SDS011;63869;52.344;16.928;2023-11-21T11:28:17;19.40;;;10.05;;
75272;SDS011;63869;52.344;16.928;2023-11-21T11:34:05;22.63;;;11.13;;
75272;SDS011;63869;52.344;16.928;2023-11-21T11:36:43;20.33;;;10.85;;
75272;SDS011;63869;52.344;16.928;2023-11-21T11:42:07;22.88;;;11.07;;
75272;SDS011;63869;52.344;16.928;2023-11-21T11:55:12;20.25;;;10.45;;
75272;SDS011;63869;52.344;16.928;2023-11-21T11:57:44;19.15;;;11.73;;
75272;SDS011;63869;52.344;16.928;2023-11-21T12:02:53;36.33;;;19.02;;
75272;SDS011;63869;52.344;16.928;2023-11-21T12:05:22;33.45;;;15.63;;
75272;SDS011;63869;52.344;16.928;2023-11-21T12:07:57;29.63;;;13.05;;
75272;SDS011;63869;52.344;16.928;2023-11-21T12:10:25;29.27;;;12.10;;
75272;SDS011;63869;52.344;16.928;2023-11-21T12:13:02;21.52;;;10.52;;
75272;SDS011;63869;52.344;16.928;2023-11-21T12:15:35;21.70;;;11.07;;
75272;SDS011;63869;52.344;16.928;2023-11-21T12:18:01;21.50;;;11.13;;
75272;SDS011;63869;52.344;16.928;2023-11-21T12:20:27;20.75;;;11.35;;
75272;SDS011;63869;52.344;16.928;2023-11-21T12:22:54;23.58;;;11.38;;
75272;SDS011;63869;52.344;16.928;2023-11-21T12:25:25;23.83;;;11.80;;
75272;SDS011;63869;52.344;16.928;2023-11-21T12:27:56;24.73;;;11.35;;
75272;SDS011;63869;52.344;16.928;2023-11-21T12:30:28;26.65;;;11.57;;
75272;SDS011;63869;52.344;16.928;2023-11-21T12:32:56;25.23;;;11.68;;
75272;SDS011;63869;52.344;16.928;2023-11-21T12:35:24;23.50;;;11.00;;
75272;SDS011;63869;52.344;16.928;2023-11-21T12:37:51;25.45;;;11.30;;
75272;SDS011;63869;52.344;16.928;2023-11-21T12:40:18;23.67;;;11.10;;
75272;SDS011;63869;52.344;16.928;2023-11-21T12:42:45;20.27;;;10.90;;
75272;SDS011;63869;52.344;16.928;2023-11-21T12:45:24;24.13;;;11.15;;
75272;SDS011;63869;52.344;16.928;2023-11-21T12:47:54;23.73;;;11.40;;
75272;SDS011;63869;52.344;16.928;2023-11-21T12:50:28;32.45;;;12.68;;
75272;SDS011;63869;52.344;16.928;2023-11-21T12:55:26;28.50;;;12.85;;
75272;SDS011;63869;52.344;16.928;2023-11-21T12:57:55;27.98;;;12.52;;
75272;SDS011;63869;52.344;16.928;2023-11-21T13:00:35;27.65;;;12.50;;
75272;SDS011;63869;52.344;16.928;2023-11-21T13:03:07;26.23;;;11.55;;
75272;SDS011;63869;52.344;16.928;2023-11-21T13:05:34;28.85;;;12.00;;
75272;SDS011;63869;52.344;16.928;2023-11-21T13:10:35;24.20;;;11.38;;
75272;SDS011;63869;52.344;16.928;2023-11-21T13:13:02;25.10;;;11.13;;
75272;SDS011;63869;52.344;16.928;2023-11-21T13:15:30;26.42;;;11.63;;
75272;SDS011;63869;52.344;16.928;2023-11-21T13:17:58;26.33;;;11.93;;
75272;SDS011;63869;52.344;16.928;2023-11-21T13:20:26;23.25;;;11.90;;
75272;SDS011;63869;52.344;16.928;2023-11-21T13:22:53;26.80;;;11.65;;
75272;SDS011;63869;52.344;16.928;2023-11-21T13:25:22;25.92;;;11.90;;
75272;SDS011;63869;52.344;16.928;2023-11-21T13:27:56;24.45;;;11.23;;
75272;SDS011;63869;52.344;16.928;2023-11-21T13:30:24;25.70;;;12.00;;
75272;SDS011;63869;52.344;16.928;2023-11-21T13:32:59;27.45;;;12.65;;
75272;SDS011;63869;52.344;16.928;2023-11-21T13:35:31;31.98;;;13.50;;
75272;SDS011;63869;52.344;16.928;2023-11-21T13:38:06;25.58;;;11.82;;
75272;SDS011;63869;52.344;16.928;2023-11-21T13:40:33;26.27;;;13.10;;
75272;SDS011;63869;52.344;16.928;2023-11-21T13:43:07;25.00;;;11.02;;
75272;SDS011;63869;52.344;16.928;2023-11-21T13:45:38;22.92;;;10.60;;
75272;SDS011;63869;52.344;16.928;2023-11-21T13:48:04;26.33;;;11.95;;
75272;SDS011;63869;52.344;16.928;2023-11-21T13:50:35;26.35;;;12.65;;
75272;SDS011;63869;52.344;16.928;2023-11-21T13:53:01;23.60;;;10.50;;
75272;SDS011;63869;52.344;16.928;2023-11-21T13:55:33;25.63;;;11.80;;
75272;SDS011;63869;52.344;16.928;2023-11-21T13:58:00;24.40;;;10.57;;
75272;SDS011;63869;52.344;16.928;2023-11-21T14:00:28;23.02;;;11.75;;
75272;SDS011;63869;52.344;16.928;2023-11-21T14:03:09;22.88;;;10.07;;
75272;SDS011;63869;52.344;16.928;2023-11-21T14:05:43;27.17;;;11.00;;
75272;SDS011;63869;52.344;16.928;2023-11-21T14:08:11;25.45;;;10.90;;
75272;SDS011;63869;52.344;16.928;2023-11-21T14:10:41;24.35;;;10.90;;
75272;SDS011;63869;52.344;16.928;2023-11-21T14:13:14;26.13;;;11.20;;
75272;SDS011;63869;52.344;16.928;2023-11-21T14:15:41;23.95;;;11.25;;
75272;SDS011;63869;52.344;16.928;2023-11-21T14:18:10;25.70;;;11.60;;
75272;SDS011;63869;52.344;16.928;2023-11-21T14:20:39;26.33;;;11.85;;
75272;SDS011;63869;52.344;16.928;2023-11-21T14:23:05;23.88;;;10.80;;
75272;SDS011;63869;52.344;16.928;2023-11-21T14:25:32;22.55;;;11.05;;
75272;SDS011;63869;52.344;16.928;2023-11-21T14:27:59;29.70;;;11.68;;
75272;SDS011;63869;52.344;16.928;2023-11-21T14:30:25;26.40;;;11.00;;
75272;SDS011;63869;52.344;16.928;2023-11-21T14:32:52;26.20;;;11.00;;
75272;SDS011;63869;52.344;16.928;2023-11-21T14:35:17;26.23;;;11.98;;
75272;SDS011;63869;52.344;16.928;2023-11-21T14:37:43;21.33;;;10.25;;
75272;SDS011;63869;52.344;16.928;2023-11-21T14:40:09;22.50;;;10.60;;
75272;SDS011;63869;52.344;16.928;2023-11-21T14:42:35;24.70;;;10.70;;
75272;SDS011;63869;52.344;16.928;2023-11-21T14:45:04;22.33;;;11.15;;